Observations for BRISTOL LULSGATE, United Kingdom (EGGD)

EGGD 112220Z AUTO 11007KT 9999 SCT018 OVC024 08/06 Q1019
EGGD 112150Z AUTO 11006KT 9999 BKN022 OVC027 07/07 Q1019
EGGD 112120Z AUTO 11007KT 9999 BKN023 07/07 Q1019   
EGGD 112050Z AUTO 12007KT 9999 BKN020 07/06 Q1020   
EGGD 112020Z AUTO 12007KT 9999 BKN020 07/07 Q1020   
EGGD 111950Z AUTO 12007KT 9999 NCD 07/07 Q1020  
EGGD 111920Z AUTO 12008KT 9999 SCT014 07/07 Q1020   
EGGD 111850Z AUTO 13009KT 9999 NCD 08/07 Q1020  
EGGD 111820Z AUTO 14008KT 9999 NCD 08/07 Q1020  
EGGD 111750Z AUTO 15011KT 9999 SCT028 08/07 Q1020   
EGGD 111720Z AUTO 14008KT 9999 FEW014 OVC023 08/08 Q1020
EGGD 111650Z AUTO 13006KT 9999 SCT012 08/08 Q1020   
EGGD 111620Z AUTO 13005KT 9999 FEW014 08/08 Q1020   
EGGD 111550Z AUTO 13008KT 9999 OVC026 08/08 Q1020   
EGGD 111520Z AUTO 14009KT 9999 BKN011 OVC021 08/08 Q1021
EGGD 111450Z AUTO 14008KT 9999 SCT011 OVC018 09/08 Q1021
EGGD 111420Z AUTO 15009KT 9999 BKN010 OVC027 09/08 Q1021
EGGD 111350Z AUTO 14008KT 9999 BKN012 OVC020 09/08 Q1021
EGGD 111320Z AUTO 14008KT 9999 BKN024 OVC032 09/08 Q1022
EGGD 111250Z AUTO 12006KT 9999 OVC028 09/08 Q1022   
EGGD 111220Z AUTO 11007KT 9999 OVC026 08/08 Q1022   
EGGD 111150Z AUTO 13007KT 9999 OVC025 08/08 Q1023   
EGGD 111120Z AUTO 13007KT 9999 OVC026 08/08 Q1023   
EGGD 111050Z AUTO 14007KT 9999 BKN026 OVC030 08/08 Q1023
EGGD 111020Z AUTO 13007KT 9999 OVC029 07/07 Q1024   
EGGD 110950Z AUTO 12006KT 9999 OVC025 06/06 Q1024   
EGGD 110920Z AUTO 12006KT 9999 OVC026 06/06 Q1024   
EGGD 110850Z AUTO 12005KT 9999 OVC027 06/06 Q1024   
EGGD 110820Z AUTO 12005KT 9999 OVC026 05/05 Q1024   
EGGD 110750Z AUTO 11005KT 9999 BKN028 04/04 Q1024   
EGGD 110720Z 11006KT 9999 FEW030 04/04 Q1024
EGGD 110650Z AUTO 12005KT 9999 NCD 06/06 Q1024  
EGGD 110620Z AUTO 14005KT 9999 NCD 06/06 Q1024  
EGGD 110550Z AUTO 14004KT 9999 NCD 06/06 Q1024  
EGGD 110520Z AUTO 17004KT 9999 NCD 06/06 Q1024  
EGGD 110450Z AUTO 19004KT 9999 NCD 06/06 Q1024  
EGGD 110420Z AUTO 16004KT 9999 NCD 06/06 Q1024  
EGGD 110350Z AUTO 16004KT 9999 NCD 06/06 Q1025  
EGGD 110320Z AUTO 17005KT 9999 SCT028 06/06 Q1025   
EGGD 110250Z AUTO 18003KT 9999 OVC029 07/06 Q1025   
EGGD 110220Z AUTO VRB03KT 9999 BKN027 06/06 Q1026   
EGGD 110150Z AUTO 22005KT 9999 BKN027 07/06 Q1026   
EGGD 110120Z AUTO 29003KT 9999 SCT029 05/05 Q1026   
EGGD 110050Z AUTO 18003KT 9999 SCT029 06/06 Q1026   
EGGD 110020Z AUTO 20003KT 9999 BKN029 07/07 Q1027   
EGGD 102350Z AUTO 20003KT 9999 OVC028 07/07 Q1027   
EGGD 102320Z AUTO 20003KT 9999 OVC029 07/07 Q1027   
EGGD 102250Z AUTO 20003KT 9999 OVC031 07/07 Q1027   
EGGD 102220Z AUTO 20004KT 9999 OVC031 07/06 Q1027   
EGGD 102150Z AUTO VRB03KT 9999 OVC029 07/06 Q1027